sensor_id;sensor_type;location;lat;lon;timestamp;P1;durP1;ratioP1;P2;durP2;ratioP2
39898;SDS011;25571;47.876;10.642;2024-01-25T00:00:19;3.20;;;1.08;;
39898;SDS011;25571;47.876;10.642;2024-01-25T00:02:44;2.67;;;1.00;;
39898;SDS011;25571;47.876;10.642;2024-01-25T00:05:10;3.83;;;1.40;;
39898;SDS011;25571;47.876;10.642;2024-01-25T00:07:44;3.67;;;1.40;;
39898;SDS011;25571;47.876;10.642;2024-01-25T00:10:13;3.85;;;1.17;;
39898;SDS011;25571;47.876;10.642;2024-01-25T00:12:40;4.28;;;1.20;;
39898;SDS011;25571;47.876;10.642;2024-01-25T00:15:06;3.28;;;0.95;;
39898;SDS011;25571;47.876;10.642;2024-01-25T00:17:31;6.50;;;1.50;;
39898;SDS011;25571;47.876;10.642;2024-01-25T00:19:57;4.85;;;1.75;;
39898;SDS011;25571;47.876;10.642;2024-01-25T00:22:22;5.95;;;1.55;;
39898;SDS011;25571;47.876;10.642;2024-01-25T00:24:48;8.98;;;1.40;;
39898;SDS011;25571;47.876;10.642;2024-01-25T00:27:13;3.55;;;0.95;;
39898;SDS011;25571;47.876;10.642;2024-01-25T00:29:39;6.72;;;1.40;;
39898;SDS011;25571;47.876;10.642;2024-01-25T00:32:04;5.90;;;1.45;;
39898;SDS011;25571;47.876;10.642;2024-01-25T00:34:30;5.68;;;1.30;;
39898;SDS011;25571;47.876;10.642;2024-01-25T00:36:56;4.82;;;1.08;;
39898;SDS011;25571;47.876;10.642;2024-01-25T00:39:22;6.72;;;1.75;;
39898;SDS011;25571;47.876;10.642;2024-01-25T00:41:49;5.40;;;1.45;;
39898;SDS011;25571;47.876;10.642;2024-01-25T00:44:16;5.43;;;1.53;;
39898;SDS011;25571;47.876;10.642;2024-01-25T00:46:42;7.88;;;1.60;;
39898;SDS011;25571;47.876;10.642;2024-01-25T00:49:08;3.47;;;1.40;;
39898;SDS011;25571;47.876;10.642;2024-01-25T00:51:34;8.73;;;1.60;;
39898;SDS011;25571;47.876;10.642;2024-01-25T00:54:01;4.93;;;1.50;;
39898;SDS011;25571;47.876;10.642;2024-01-25T00:56:28;5.60;;;1.60;;
39898;SDS011;25571;47.876;10.642;2024-01-25T00:58:54;5.78;;;1.73;;
39898;SDS011;25571;47.876;10.642;2024-01-25T01:01:21;7.60;;;1.20;;
39898;SDS011;25571;47.876;10.642;2024-01-25T01:03:47;2.93;;;0.93;;
39898;SDS011;25571;47.876;10.642;2024-01-25T01:06:18;3.80;;;0.90;;
39898;SDS011;25571;47.876;10.642;2024-01-25T01:08:45;7.57;;;1.15;;
39898;SDS011;25571;47.876;10.642;2024-01-25T01:11:11;3.47;;;1.02;;
39898;SDS011;25571;47.876;10.642;2024-01-25T01:13:36;5.68;;;1.50;;
39898;SDS011;25571;47.876;10.642;2024-01-25T01:16:02;3.90;;;0.85;;
39898;SDS011;25571;47.876;10.642;2024-01-25T01:18:28;5.03;;;1.00;;
39898;SDS011;25571;47.876;10.642;2024-01-25T01:20:53;4.20;;;1.33;;
39898;SDS011;25571;47.876;10.642;2024-01-25T01:23:19;5.28;;;1.33;;
39898;SDS011;25571;47.876;10.642;2024-01-25T01:25:45;5.35;;;1.25;;
39898;SDS011;25571;47.876;10.642;2024-01-25T01:28:10;4.75;;;1.45;;
39898;SDS011;25571;47.876;10.642;2024-01-25T01:30:36;4.70;;;1.30;;
39898;SDS011;25571;47.876;10.642;2024-01-25T01:33:01;7.43;;;1.40;;
39898;SDS011;25571;47.876;10.642;2024-01-25T01:35:27;4.88;;;1.33;;
39898;SDS011;25571;47.876;10.642;2024-01-25T01:37:53;3.58;;;1.40;;
39898;SDS011;25571;47.876;10.642;2024-01-25T01:40:18;6.78;;;1.48;;
39898;SDS011;25571;47.876;10.642;2024-01-25T01:42:44;9.00;;;1.45;;
39898;SDS011;25571;47.876;10.642;2024-01-25T01:45:10;6.45;;;1.38;;
39898;SDS011;25571;47.876;10.642;2024-01-25T01:47:37;1.67;;;0.80;;
39898;SDS011;25571;47.876;10.642;2024-01-25T01:50:04;5.80;;;1.42;;
39898;SDS011;25571;47.876;10.642;2024-01-25T01:52:31;4.05;;;1.13;;
39898;SDS011;25571;47.876;10.642;2024-01-25T01:54:57;4.90;;;1.10;;
39898;SDS011;25571;47.876;10.642;2024-01-25T01:57:23;4.70;;;1.23;;
39898;SDS011;25571;47.876;10.642;2024-01-25T01:59:49;6.00;;;1.17;;
39898;SDS011;25571;47.876;10.642;2024-01-25T02:02:15;5.55;;;1.75;;
39898;SDS011;25571;47.876;10.642;2024-01-25T02:04:40;4.90;;;1.20;;
39898;SDS011;25571;47.876;10.642;2024-01-25T02:07:07;1.95;;;0.85;;
39898;SDS011;25571;47.876;10.642;2024-01-25T02:09:32;2.20;;;0.80;;
39898;SDS011;25571;47.876;10.642;2024-01-25T02:12:01;3.80;;;1.02;;
39898;SDS011;25571;47.876;10.642;2024-01-25T02:14:28;4.03;;;1.30;;
39898;SDS011;25571;47.876;10.642;2024-01-25T02:16:53;1.63;;;0.90;;
39898;SDS011;25571;47.876;10.642;2024-01-25T02:19:19;6.10;;;1.10;;
39898;SDS011;25571;47.876;10.642;2024-01-25T02:21:44;4.78;;;1.60;;
39898;SDS011;25571;47.876;10.642;2024-01-25T02:24:10;4.50;;;1.20;;
39898;SDS011;25571;47.876;10.642;2024-01-25T02:26:36;4.13;;;1.27;;
39898;SDS011;25571;47.876;10.642;2024-01-25T02:29:01;2.63;;;1.20;;
39898;SDS011;25571;47.876;10.642;2024-01-25T02:31:29;4.00;;;1.38;;
39898;SDS011;25571;47.876;10.642;2024-01-25T02:33:55;1.70;;;0.82;;
39898;SDS011;25571;47.876;10.642;2024-01-25T02:36:24;2.20;;;0.73;;
39898;SDS011;25571;47.876;10.642;2024-01-25T02:38:49;3.72;;;0.90;;
39898;SDS011;25571;47.876;10.642;2024-01-25T02:41:15;2.95;;;0.90;;
39898;SDS011;25571;47.876;10.642;2024-01-25T02:43:41;1.92;;;0.98;;
39898;SDS011;25571;47.876;10.642;2024-01-25T02:46:07;4.47;;;1.52;;
39898;SDS011;25571;47.876;10.642;2024-01-25T02:48:32;3.25;;;1.13;;
39898;SDS011;25571;47.876;10.642;2024-01-25T02:50:58;4.57;;;1.00;;
39898;SDS011;25571;47.876;10.642;2024-01-25T02:53:24;1.05;;;0.63;;
39898;SDS011;25571;47.876;10.642;2024-01-25T02:55:50;5.25;;;1.05;;
39898;SDS011;25571;47.876;10.642;2024-01-25T02:58:15;2.90;;;1.17;;
39898;SDS011;25571;47.876;10.642;2024-01-25T03:00:41;1.75;;;1.08;;
39898;SDS011;25571;47.876;10.642;2024-01-25T03:03:07;1.70;;;0.73;;
39898;SDS011;25571;47.876;10.642;2024-01-25T03:05:32;1.85;;;0.80;;
39898;SDS011;25571;47.876;10.642;2024-01-25T03:07:59;4.65;;;1.08;;
39898;SDS011;25571;47.876;10.642;2024-01-25T03:10:25;3.03;;;1.17;;
39898;SDS011;25571;47.876;10.642;2024-01-25T03:12:51;4.53;;;1.17;;
39898;SDS011;25571;47.876;10.642;2024-01-25T03:15:16;2.20;;;0.85;;
39898;SDS011;25571;47.876;10.642;2024-01-25T03:17:42;2.95;;;0.80;;
39898;SDS011;25571;47.876;10.642;2024-01-25T03:20:08;3.95;;;1.50;;
39898;SDS011;25571;47.876;10.642;2024-01-25T03:22:34;1.30;;;0.88;;
39898;SDS011;25571;47.876;10.642;2024-01-25T03:25:00;1.65;;;0.73;;
39898;SDS011;25571;47.876;10.642;2024-01-25T03:27:26;3.30;;;1.00;;
39898;SDS011;25571;47.876;10.642;2024-01-25T03:29:51;2.28;;;0.57;;
39898;SDS011;25571;47.876;10.642;2024-01-25T03:32:18;4.60;;;1.13;;
39898;SDS011;25571;47.876;10.642;2024-01-25T03:34:43;2.25;;;0.88;;
39898;SDS011;25571;47.876;10.642;2024-01-25T03:37:09;2.13;;;0.90;;
39898;SDS011;25571;47.876;10.642;2024-01-25T03:39:35;3.03;;;0.90;;
39898;SDS011;25571;47.876;10.642;2024-01-25T03:42:01;1.70;;;0.80;;
39898;SDS011;25571;47.876;10.642;2024-01-25T03:44:27;3.20;;;0.90;;
39898;SDS011;25571;47.876;10.642;2024-01-25T03:46:52;3.53;;;0.80;;
39898;SDS011;25571;47.876;10.642;2024-01-25T03:49:18;2.53;;;1.02;;
39898;SDS011;25571;47.876;10.642;2024-01-25T03:51:44;2.47;;;1.08;;
39898;SDS011;25571;47.876;10.642;2024-01-25T03:54:10;3.22;;;0.68;;
39898;SDS011;25571;47.876;10.642;2024-01-25T03:56:35;7.38;;;1.30;;
39898;SDS011;25571;47.876;10.642;2024-01-25T03:59:01;2.92;;;0.80;;
39898;SDS011;25571;47.876;10.642;2024-01-25T04:01:26;2.78;;;0.90;;
39898;SDS011;25571;47.876;10.642;2024-01-25T04:03:52;4.50;;;0.90;;
39898;SDS011;25571;47.876;10.642;2024-01-25T04:06:17;3.90;;;0.80;;
39898;SDS011;25571;47.876;10.642;2024-01-25T04:08:44;1.15;;;0.60;;
39898;SDS011;25571;47.876;10.642;2024-01-25T04:11:10;2.47;;;0.80;;
39898;SDS011;25571;47.876;10.642;2024-01-25T04:13:35;3.22;;;0.80;;
39898;SDS011;25571;47.876;10.642;2024-01-25T04:16:01;6.53;;;1.40;;
39898;SDS011;25571;47.876;10.642;2024-01-25T04:18:26;1.42;;;0.80;;
39898;SDS011;25571;47.876;10.642;2024-01-25T04:20:52;4.32;;;0.90;;
39898;SDS011;25571;47.876;10.642;2024-01-25T04:23:17;3.70;;;1.20;;
39898;SDS011;25571;47.876;10.642;2024-01-25T04:25:43;1.98;;;0.95;;
39898;SDS011;25571;47.876;10.642;2024-01-25T04:28:09;2.42;;;1.00;;
39898;SDS011;25571;47.876;10.642;2024-01-25T04:30:34;2.85;;;0.82;;
39898;SDS011;25571;47.876;10.642;2024-01-25T04:33:00;1.80;;;1.00;;
39898;SDS011;25571;47.876;10.642;2024-01-25T04:35:26;3.90;;;1.05;;
39898;SDS011;25571;47.876;10.642;2024-01-25T04:37:52;4.20;;;0.90;;
39898;SDS011;25571;47.876;10.642;2024-01-25T04:40:18;3.00;;;0.85;;
39898;SDS011;25571;47.876;10.642;2024-01-25T04:42:44;3.45;;;0.93;;
39898;SDS011;25571;47.876;10.642;2024-01-25T04:45:09;2.42;;;0.70;;
39898;SDS011;25571;47.876;10.642;2024-01-25T04:47:37;3.42;;;0.80;;
39898;SDS011;25571;47.876;10.642;2024-01-25T04:50:03;2.42;;;0.90;;
39898;SDS011;25571;47.876;10.642;2024-01-25T04:52:29;3.42;;;1.10;;
39898;SDS011;25571;47.876;10.642;2024-01-25T04:54:55;4.28;;;1.13;;
39898;SDS011;25571;47.876;10.642;2024-01-25T04:57:20;2.88;;;0.88;;
39898;SDS011;25571;47.876;10.642;2024-01-25T04:59:46;2.53;;;0.75;;
39898;SDS011;25571;47.876;10.642;2024-01-25T05:02:11;2.70;;;0.80;;
39898;SDS011;25571;47.876;10.642;2024-01-25T05:04:37;4.53;;;0.80;;
39898;SDS011;25571;47.876;10.642;2024-01-25T05:07:02;2.33;;;0.77;;
39898;SDS011;25571;47.876;10.642;2024-01-25T05:09:28;2.05;;;0.63;;
39898;SDS011;25571;47.876;10.642;2024-01-25T05:11:53;1.38;;;0.65;;
39898;SDS011;25571;47.876;10.642;2024-01-25T05:14:23;2.17;;;0.82;;
39898;SDS011;25571;47.876;10.642;2024-01-25T05:16:49;1.75;;;0.65;;
39898;SDS011;25571;47.876;10.642;2024-01-25T05:19:14;4.20;;;1.00;;
39898;SDS011;25571;47.876;10.642;2024-01-25T05:21:40;4.45;;;0.90;;
39898;SDS011;25571;47.876;10.642;2024-01-25T05:24:05;4.25;;;0.80;;
39898;SDS011;25571;47.876;10.642;2024-01-25T05:26:32;1.55;;;0.70;;
39898;SDS011;25571;47.876;10.642;2024-01-25T05:28:58;4.50;;;1.33;;
39898;SDS011;25571;47.876;10.642;2024-01-25T05:31:23;4.20;;;1.20;;
39898;SDS011;25571;47.876;10.642;2024-01-25T05:33:49;3.63;;;0.77;;
39898;SDS011;25571;47.876;10.642;2024-01-25T05:36:15;2.47;;;0.95;;
39898;SDS011;25571;47.876;10.642;2024-01-25T05:38:40;2.85;;;0.73;;
39898;SDS011;25571;47.876;10.642;2024-01-25T05:41:06;3.42;;;1.15;;
39898;SDS011;25571;47.876;10.642;2024-01-25T05:43:32;3.17;;;0.80;;
39898;SDS011;25571;47.876;10.642;2024-01-25T05:45:58;6.13;;;1.00;;
39898;SDS011;25571;47.876;10.642;2024-01-25T05:48:24;5.30;;;1.30;;
39898;SDS011;25571;47.876;10.642;2024-01-25T05:50:49;4.85;;;1.10;;
39898;SDS011;25571;47.876;10.642;2024-01-25T05:53:15;4.70;;;1.13;;
39898;SDS011;25571;47.876;10.642;2024-01-25T05:55:44;3.30;;;0.80;;
39898;SDS011;25571;47.876;10.642;2024-01-25T05:58:09;2.92;;;0.85;;
39898;SDS011;25571;47.876;10.642;2024-01-25T06:00:35;4.13;;;1.02;;
39898;SDS011;25571;47.876;10.642;2024-01-25T06:03:00;2.90;;;0.82;;
39898;SDS011;25571;47.876;10.642;2024-01-25T06:05:26;1.02;;;0.55;;
39898;SDS011;25571;47.876;10.642;2024-01-25T06:07:52;2.45;;;0.80;;
39898;SDS011;25571;47.876;10.642;2024-01-25T06:10:18;2.50;;;1.25;;
39898;SDS011;25571;47.876;10.642;2024-01-25T06:12:43;2.15;;;0.60;;
39898;SDS011;25571;47.876;10.642;2024-01-25T06:15:09;2.55;;;0.68;;
39898;SDS011;25571;47.876;10.642;2024-01-25T06:17:35;1.45;;;0.35;;
39898;SDS011;25571;47.876;10.642;2024-01-25T06:20:01;2.40;;;1.00;;
39898;SDS011;25571;47.876;10.642;2024-01-25T06:22:27;2.47;;;0.82;;
39898;SDS011;25571;47.876;10.642;2024-01-25T06:24:53;1.33;;;0.47;;
39898;SDS011;25571;47.876;10.642;2024-01-25T06:27:18;1.40;;;0.60;;
39898;SDS011;25571;47.876;10.642;2024-01-25T06:29:44;2.30;;;0.80;;
39898;SDS011;25571;47.876;10.642;2024-01-25T06:32:10;1.67;;;0.90;;
39898;SDS011;25571;47.876;10.642;2024-01-25T06:34:35;1.42;;;0.70;;
39898;SDS011;25571;47.876;10.642;2024-01-25T06:37:01;2.47;;;0.82;;
39898;SDS011;25571;47.876;10.642;2024-01-25T06:39:26;1.55;;;0.80;;
39898;SDS011;25571;47.876;10.642;2024-01-25T06:41:52;0.85;;;0.57;;
39898;SDS011;25571;47.876;10.642;2024-01-25T06:44:17;1.70;;;0.45;;
39898;SDS011;25571;47.876;10.642;2024-01-25T06:46:43;2.05;;;1.05;;
39898;SDS011;25571;47.876;10.642;2024-01-25T06:49:09;1.63;;;0.68;;
39898;SDS011;25571;47.876;10.642;2024-01-25T06:51:34;1.40;;;0.60;;
39898;SDS011;25571;47.876;10.642;2024-01-25T06:54:00;1.70;;;1.10;;
39898;SDS011;25571;47.876;10.642;2024-01-25T06:56:25;1.42;;;0.68;;
39898;SDS011;25571;47.876;10.642;2024-01-25T06:58:51;1.42;;;0.68;;
39898;SDS011;25571;47.876;10.642;2024-01-25T07:01:20;2.83;;;1.17;;
39898;SDS011;25571;47.876;10.642;2024-01-25T07:03:47;1.98;;;0.77;;
39898;SDS011;25571;47.876;10.642;2024-01-25T07:06:12;1.98;;;0.50;;
39898;SDS011;25571;47.876;10.642;2024-01-25T07:08:38;1.08;;;0.47;;
39898;SDS011;25571;47.876;10.642;2024-01-25T07:11:03;4.47;;;0.85;;
39898;SDS011;25571;47.876;10.642;2024-01-25T07:13:29;2.83;;;0.70;;
39898;SDS011;25571;47.876;10.642;2024-01-25T07:15:54;2.47;;;0.60;;
39898;SDS011;25571;47.876;10.642;2024-01-25T07:18:20;1.45;;;0.50;;
39898;SDS011;25571;47.876;10.642;2024-01-25T07:20:46;2.80;;;0.57;;
39898;SDS011;25571;47.876;10.642;2024-01-25T07:23:11;2.13;;;0.70;;
39898;SDS011;25571;47.876;10.642;2024-01-25T07:25:37;2.88;;;0.90;;
39898;SDS011;25571;47.876;10.642;2024-01-25T07:28:02;2.28;;;0.95;;
39898;SDS011;25571;47.876;10.642;2024-01-25T07:30:28;3.35;;;1.38;;
39898;SDS011;25571;47.876;10.642;2024-01-25T07:32:54;3.35;;;1.40;;
39898;SDS011;25571;47.876;10.642;2024-01-25T07:35:19;1.80;;;0.88;;
39898;SDS011;25571;47.876;10.642;2024-01-25T07:37:45;1.67;;;0.70;;
39898;SDS011;25571;47.876;10.642;2024-01-25T07:40:10;3.38;;;0.80;;
39898;SDS011;25571;47.876;10.642;2024-01-25T07:42:36;2.25;;;0.73;;
39898;SDS011;25571;47.876;10.642;2024-01-25T07:45:02;0.82;;;0.50;;
39898;SDS011;25571;47.876;10.642;2024-01-25T07:47:28;2.50;;;0.73;;
39898;SDS011;25571;47.876;10.642;2024-01-25T07:49:54;1.92;;;0.50;;
39898;SDS011;25571;47.876;10.642;2024-01-25T07:52:20;1.73;;;0.70;;
39898;SDS011;25571;47.876;10.642;2024-01-25T07:54:45;1.27;;;1.00;;
39898;SDS011;25571;47.876;10.642;2024-01-25T07:57:11;4.07;;;1.48;;
39898;SDS011;25571;47.876;10.642;2024-01-25T07:59:37;3.55;;;1.60;;
39898;SDS011;25571;47.876;10.642;2024-01-25T08:02:02;2.97;;;1.30;;
39898;SDS011;25571;47.876;10.642;2024-01-25T08:04:28;2.95;;;0.98;;
39898;SDS011;25571;47.876;10.642;2024-01-25T08:06:53;2.65;;;0.82;;
39898;SDS011;25571;47.876;10.642;2024-01-25T08:09:19;2.05;;;0.63;;
39898;SDS011;25571;47.876;10.642;2024-01-25T08:11:45;1.17;;;0.60;;
39898;SDS011;25571;47.876;10.642;2024-01-25T08:14:10;2.38;;;0.68;;
39898;SDS011;25571;47.876;10.642;2024-01-25T08:16:36;2.03;;;0.43;;
39898;SDS011;25571;47.876;10.642;2024-01-25T08:19:02;0.98;;;0.57;;
39898;SDS011;25571;47.876;10.642;2024-01-25T08:21:28;2.33;;;0.40;;
39898;SDS011;25571;47.876;10.642;2024-01-25T08:23:53;0.52;;;0.40;;
39898;SDS011;25571;47.876;10.642;2024-01-25T08:26:19;3.33;;;0.60;;
39898;SDS011;25571;47.876;10.642;2024-01-25T08:28:45;1.30;;;0.40;;
39898;SDS011;25571;47.876;10.642;2024-01-25T08:31:11;3.08;;;0.50;;
39898;SDS011;25571;47.876;10.642;2024-01-25T08:33:38;1.38;;;0.52;;
39898;SDS011;25571;47.876;10.642;2024-01-25T08:36:07;1.88;;;0.68;;
39898;SDS011;25571;47.876;10.642;2024-01-25T08:38:32;1.50;;;0.80;;
39898;SDS011;25571;47.876;10.642;2024-01-25T08:40:58;1.10;;;0.90;;
39898;SDS011;25571;47.876;10.642;2024-01-25T08:43:24;2.03;;;1.27;;
39898;SDS011;25571;47.876;10.642;2024-01-25T08:45:49;4.53;;;1.23;;
39898;SDS011;25571;47.876;10.642;2024-01-25T08:48:15;3.65;;;1.50;;
39898;SDS011;25571;47.876;10.642;2024-01-25T08:50:40;2.85;;;1.30;;
39898;SDS011;25571;47.876;10.642;2024-01-25T08:53:06;2.40;;;0.80;;
39898;SDS011;25571;47.876;10.642;2024-01-25T08:55:32;2.75;;;0.90;;
39898;SDS011;25571;47.876;10.642;2024-01-25T08:57:57;2.80;;;0.68;;
39898;SDS011;25571;47.876;10.642;2024-01-25T09:00:23;2.33;;;0.77;;
39898;SDS011;25571;47.876;10.642;2024-01-25T09:02:48;1.25;;;0.50;;
39898;SDS011;25571;47.876;10.642;2024-01-25T09:05:14;1.90;;;0.60;;
39898;SDS011;25571;47.876;10.642;2024-01-25T09:07:40;2.78;;;0.63;;
39898;SDS011;25571;47.876;10.642;2024-01-25T09:10:06;3.80;;;0.65;;
39898;SDS011;25571;47.876;10.642;2024-01-25T09:12:33;1.40;;;0.70;;
39898;SDS011;25571;47.876;10.642;2024-01-25T09:14:59;1.80;;;0.57;;
39898;SDS011;25571;47.876;10.642;2024-01-25T09:17:25;1.10;;;0.40;;
39898;SDS011;25571;47.876;10.642;2024-01-25T09:19:51;2.40;;;0.60;;
39898;SDS011;25571;47.876;10.642;2024-01-25T09:22:17;1.75;;;0.40;;
39898;SDS011;25571;47.876;10.642;2024-01-25T09:24:44;3.53;;;0.50;;
39898;SDS011;25571;47.876;10.642;2024-01-25T09:27:11;2.03;;;0.80;;
39898;SDS011;25571;47.876;10.642;2024-01-25T09:29:37;1.52;;;0.70;;
39898;SDS011;25571;47.876;10.642;2024-01-25T09:32:04;3.03;;;0.90;;
39898;SDS011;25571;47.876;10.642;2024-01-25T09:34:37;2.15;;;0.70;;
39898;SDS011;25571;47.876;10.642;2024-01-25T09:37:03;2.28;;;0.63;;
39898;SDS011;25571;47.876;10.642;2024-01-25T09:39:31;2.50;;;0.95;;
39898;SDS011;25571;47.876;10.642;2024-01-25T09:41:56;3.50;;;1.38;;
39898;SDS011;25571;47.876;10.642;2024-01-25T09:44:22;4.28;;;1.70;;
39898;SDS011;25571;47.876;10.642;2024-01-25T09:46:48;3.90;;;1.52;;
39898;SDS011;25571;47.876;10.642;2024-01-25T09:49:16;4.43;;;1.35;;
39898;SDS011;25571;47.876;10.642;2024-01-25T09:51:42;2.85;;;1.08;;
39898;SDS011;25571;47.876;10.642;2024-01-25T09:54:08;2.95;;;1.15;;
39898;SDS011;25571;47.876;10.642;2024-01-25T09:56:34;2.83;;;1.10;;
39898;SDS011;25571;47.876;10.642;2024-01-25T09:59:00;3.80;;;1.30;;
39898;SDS011;25571;47.876;10.642;2024-01-25T10:01:27;6.85;;;1.20;;
39898;SDS011;25571;47.876;10.642;2024-01-25T10:03:53;4.88;;;1.30;;
39898;SDS011;25571;47.876;10.642;2024-01-25T10:08:48;3.35;;;0.95;;
39898;SDS011;25571;47.876;10.642;2024-01-25T10:11:13;4.05;;;1.60;;
39898;SDS011;25571;47.876;10.642;2024-01-25T10:13:43;3.50;;;1.17;;
39898;SDS011;25571;47.876;10.642;2024-01-25T10:18:40;2.90;;;1.17;;
39898;SDS011;25571;47.876;10.642;2024-01-25T10:21:06;2.78;;;1.05;;
39898;SDS011;25571;47.876;10.642;2024-01-25T10:23:32;2.28;;;0.90;;
39898;SDS011;25571;47.876;10.642;2024-01-25T10:25:57;4.53;;;1.10;;
39898;SDS011;25571;47.876;10.642;2024-01-25T10:28:23;2.72;;;1.02;;
39898;SDS011;25571;47.876;10.642;2024-01-25T10:30:55;3.78;;;1.00;;
39898;SDS011;25571;47.876;10.642;2024-01-25T10:33:22;4.43;;;1.38;;
39898;SDS011;25571;47.876;10.642;2024-01-25T10:35:49;3.75;;;1.20;;
39898;SDS011;25571;47.876;10.642;2024-01-25T10:38:17;5.22;;;1.30;;
39898;SDS011;25571;47.876;10.642;2024-01-25T10:40:43;2.47;;;0.90;;
39898;SDS011;25571;47.876;10.642;2024-01-25T10:43:11;3.90;;;0.70;;
39898;SDS011;25571;47.876;10.642;2024-01-25T10:45:36;3.85;;;0.93;;
39898;SDS011;25571;47.876;10.642;2024-01-25T10:48:02;3.55;;;1.05;;
39898;SDS011;25571;47.876;10.642;2024-01-25T10:50:28;4.45;;;1.40;;
39898;SDS011;25571;47.876;10.642;2024-01-25T10:52:55;2.50;;;1.17;;
39898;SDS011;25571;47.876;10.642;2024-01-25T10:55:22;3.58;;;1.02;;
39898;SDS011;25571;47.876;10.642;2024-01-25T10:57:48;4.30;;;1.45;;
39898;SDS011;25571;47.876;10.642;2024-01-25T11:00:14;2.97;;;0.80;;
39898;SDS011;25571;47.876;10.642;2024-01-25T11:02:41;4.03;;;1.13;;
39898;SDS011;25571;47.876;10.642;2024-01-25T11:05:12;3.22;;;1.27;;
39898;SDS011;25571;47.876;10.642;2024-01-25T11:07:42;3.17;;;1.23;;
39898;SDS011;25571;47.876;10.642;2024-01-25T11:10:13;2.00;;;1.20;;
39898;SDS011;25571;47.876;10.642;2024-01-25T11:12:49;2.28;;;0.70;;
39898;SDS011;25571;47.876;10.642;2024-01-25T11:15:22;2.33;;;0.95;;
39898;SDS011;25571;47.876;10.642;2024-01-25T11:17:56;3.15;;;1.05;;
39898;SDS011;25571;47.876;10.642;2024-01-25T11:20:22;1.75;;;0.80;;
39898;SDS011;25571;47.876;10.642;2024-01-25T11:22:56;4.30;;;1.00;;
39898;SDS011;25571;47.876;10.642;2024-01-25T11:25:21;2.72;;;0.85;;
39898;SDS011;25571;47.876;10.642;2024-01-25T11:27:50;1.27;;;0.60;;
39898;SDS011;25571;47.876;10.642;2024-01-25T11:30:17;2.17;;;0.75;;
39898;SDS011;25571;47.876;10.642;2024-01-25T11:32:45;1.73;;;0.65;;
39898;SDS011;25571;47.876;10.642;2024-01-25T11:35:12;1.45;;;0.73;;
39898;SDS011;25571;47.876;10.642;2024-01-25T11:37:41;0.88;;;0.50;;
39898;SDS011;25571;47.876;10.642;2024-01-25T11:40:14;1.77;;;0.60;;
39898;SDS011;25571;47.876;10.642;2024-01-25T11:42:44;1.30;;;0.63;;
39898;SDS011;25571;47.876;10.642;2024-01-25T11:45:11;1.27;;;0.70;;
39898;SDS011;25571;47.876;10.642;2024-01-25T11:47:37;1.27;;;0.50;;
39898;SDS011;25571;47.876;10.642;2024-01-25T11:50:04;1.52;;;0.70;;
39898;SDS011;25571;47.876;10.642;2024-01-25T11:52:31;1.75;;;0.60;;
39898;SDS011;25571;47.876;10.642;2024-01-25T11:54:58;2.47;;;0.77;;
39898;SDS011;25571;47.876;10.642;2024-01-25T11:57:24;1.85;;;0.60;;
39898;SDS011;25571;47.876;10.642;2024-01-25T11:59:50;1.05;;;0.40;;
39898;SDS011;25571;47.876;10.642;2024-01-25T12:02:16;1.58;;;0.60;;
39898;SDS011;25571;47.876;10.642;2024-01-25T12:04:42;2.67;;;0.63;;
39898;SDS011;25571;47.876;10.642;2024-01-25T12:07:08;1.33;;;0.65;;
39898;SDS011;25571;47.876;10.642;2024-01-25T12:09:33;2.25;;;0.52;;
39898;SDS011;25571;47.876;10.642;2024-01-25T12:12:02;0.85;;;0.40;;
39898;SDS011;25571;47.876;10.642;2024-01-25T12:14:28;0.60;;;0.38;;
39898;SDS011;25571;47.876;10.642;2024-01-25T12:16:56;1.35;;;0.57;;
39898;SDS011;25571;47.876;10.642;2024-01-25T12:19:22;0.50;;;0.40;;
39898;SDS011;25571;47.876;10.642;2024-01-25T12:21:48;1.55;;;0.60;;
39898;SDS011;25571;47.876;10.642;2024-01-25T12:24:13;2.83;;;0.68;;
39898;SDS011;25571;47.876;10.642;2024-01-25T12:26:39;0.70;;;0.32;;
39898;SDS011;25571;47.876;10.642;2024-01-25T12:29:06;1.83;;;0.38;;
39898;SDS011;25571;47.876;10.642;2024-01-25T12:31:33;0.98;;;0.47;;
39898;SDS011;25571;47.876;10.642;2024-01-25T12:33:59;2.20;;;0.50;;
39898;SDS011;25571;47.876;10.642;2024-01-25T12:36:25;2.40;;;0.60;;
39898;SDS011;25571;47.876;10.642;2024-01-25T12:38:51;1.35;;;0.60;;
39898;SDS011;25571;47.876;10.642;2024-01-25T12:41:17;0.98;;;0.40;;
39898;SDS011;25571;47.876;10.642;2024-01-25T12:43:42;1.42;;;0.60;;
39898;SDS011;25571;47.876;10.642;2024-01-25T12:46:08;2.17;;;0.50;;
39898;SDS011;25571;47.876;10.642;2024-01-25T12:48:34;4.75;;;0.50;;
39898;SDS011;25571;47.876;10.642;2024-01-25T12:50:59;1.17;;;0.50;;
39898;SDS011;25571;47.876;10.642;2024-01-25T12:53:26;1.77;;;0.65;;
39898;SDS011;25571;47.876;10.642;2024-01-25T12:55:52;1.27;;;0.43;;
39898;SDS011;25571;47.876;10.642;2024-01-25T12:58:17;1.77;;;0.40;;
39898;SDS011;25571;47.876;10.642;2024-01-25T13:00:43;4.32;;;0.70;;
39898;SDS011;25571;47.876;10.642;2024-01-25T13:03:10;1.70;;;0.70;;
39898;SDS011;25571;47.876;10.642;2024-01-25T13:05:36;0.73;;;0.50;;
39898;SDS011;25571;47.876;10.642;2024-01-25T13:08:04;3.20;;;0.70;;
39898;SDS011;25571;47.876;10.642;2024-01-25T13:10:30;1.00;;;0.40;;
39898;SDS011;25571;47.876;10.642;2024-01-25T13:12:56;0.70;;;0.40;;
39898;SDS011;25571;47.876;10.642;2024-01-25T13:15:22;2.80;;;0.50;;
39898;SDS011;25571;47.876;10.642;2024-01-25T13:17:48;1.95;;;0.50;;
39898;SDS011;25571;47.876;10.642;2024-01-25T13:20:14;2.05;;;0.63;;
39898;SDS011;25571;47.876;10.642;2024-01-25T13:22:40;0.70;;;0.38;;
39898;SDS011;25571;47.876;10.642;2024-01-25T13:25:06;2.17;;;0.60;;
39898;SDS011;25571;47.876;10.642;2024-01-25T13:27:33;2.17;;;0.70;;
39898;SDS011;25571;47.876;10.642;2024-01-25T13:29:59;1.95;;;1.27;;
39898;SDS011;25571;47.876;10.642;2024-01-25T13:32:25;1.77;;;0.90;;
39898;SDS011;25571;47.876;10.642;2024-01-25T13:34:50;2.47;;;0.77;;
39898;SDS011;25571;47.876;10.642;2024-01-25T13:37:16;2.20;;;1.05;;
39898;SDS011;25571;47.876;10.642;2024-01-25T13:39:42;1.83;;;1.13;;
39898;SDS011;25571;47.876;10.642;2024-01-25T13:42:07;2.90;;;0.80;;
39898;SDS011;25571;47.876;10.642;2024-01-25T13:44:33;3.10;;;0.60;;
39898;SDS011;25571;47.876;10.642;2024-01-25T13:46:58;0.73;;;0.60;;
39898;SDS011;25571;47.876;10.642;2024-01-25T13:49:24;2.42;;;0.82;;
39898;SDS011;25571;47.876;10.642;2024-01-25T13:51:50;3.92;;;2.47;;
39898;SDS011;25571;47.876;10.642;2024-01-25T13:54:15;6.47;;;3.60;;
39898;SDS011;25571;47.876;10.642;2024-01-25T13:56:41;6.05;;;2.75;;
39898;SDS011;25571;47.876;10.642;2024-01-25T13:59:06;1.27;;;0.73;;
39898;SDS011;25571;47.876;10.642;2024-01-25T14:01:32;0.70;;;0.38;;
39898;SDS011;25571;47.876;10.642;2024-01-25T14:03:58;0.93;;;0.47;;
39898;SDS011;25571;47.876;10.642;2024-01-25T14:06:23;1.13;;;0.40;;
39898;SDS011;25571;47.876;10.642;2024-01-25T14:08:49;2.25;;;0.60;;
39898;SDS011;25571;47.876;10.642;2024-01-25T14:11:15;0.70;;;0.50;;
39898;SDS011;25571;47.876;10.642;2024-01-25T14:13:41;1.00;;;0.73;;
39898;SDS011;25571;47.876;10.642;2024-01-25T14:16:07;0.60;;;0.60;;
39898;SDS011;25571;47.876;10.642;2024-01-25T14:18:38;0.70;;;0.30;;
39898;SDS011;25571;47.876;10.642;2024-01-25T14:21:04;0.50;;;0.50;;
39898;SDS011;25571;47.876;10.642;2024-01-25T14:23:31;0.85;;;0.30;;
39898;SDS011;25571;47.876;10.642;2024-01-25T14:25:57;1.20;;;0.20;;
39898;SDS011;25571;47.876;10.642;2024-01-25T14:28:22;1.52;;;0.47;;
39898;SDS011;25571;47.876;10.642;2024-01-25T14:30:48;1.75;;;0.50;;